createdAt,value
2022-09-28T00:01:09.493Z,99370.09
2022-09-28T00:03:36.413Z,99372.69
2022-09-28T00:06:03.970Z,99363.94
2022-09-28T00:08:30.325Z,99366.50
2022-09-28T00:10:56.904Z,99361.25
2022-09-28T00:13:23.694Z,99361.22
2022-09-28T00:16:00.286Z,99365.63
2022-09-28T00:18:26.745Z,99361.16
2022-09-28T00:20:59.951Z,99357.63
2022-09-28T00:23:26.182Z,99361.97
2022-09-28T00:25:52.412Z,99359.34
2022-09-28T00:28:18.671Z,99357.59
2022-09-28T00:30:44.917Z,99358.44
2022-09-28T00:33:11.160Z,99359.31
2022-09-28T00:35:37.485Z,99354.09
2022-09-28T00:38:03.849Z,99357.59
2022-09-28T00:40:30.200Z,99356.72
2022-09-28T00:42:56.490Z,99351.53
2022-09-28T00:45:25.343Z,99353.28
2022-09-28T00:47:55.003Z,99354.19
2022-09-28T00:50:21.395Z,99355.03
2022-09-28T00:52:53.572Z,99350.75
2022-09-28T00:55:22.569Z,99353.34
2022-09-28T00:57:51.763Z,99361.22
2022-09-28T01:00:18.292Z,99349.75
2022-09-28T01:02:45.102Z,99346.28
2022-09-28T01:05:11.749Z,99350.66
2022-09-28T01:07:38.853Z,99344.56
2022-09-28T01:10:05.879Z,99344.59
2022-09-28T01:12:32.191Z,99337.56
2022-09-28T01:14:59.002Z,99343.78
2022-09-28T01:17:44.373Z,99345.53
2022-09-28T01:20:13.665Z,99342.13
2022-09-28T01:22:58.200Z,99345.66
2022-09-28T01:25:31.430Z,99329.81
2022-09-28T01:27:59.690Z,99346.44
2022-09-28T01:30:26.025Z,99345.53
2022-09-28T01:33:05.278Z,99349.06
2022-09-28T01:35:43.326Z,99347.28
2022-09-28T01:38:13.295Z,99343.81
2022-09-28T01:40:40.362Z,99343.81
2022-09-28T01:43:08.687Z,99344.63
2022-09-28T01:45:41.165Z,99345.53
2022-09-28T01:48:08.553Z,99343.78
2022-09-28T01:50:39.610Z,99345.53
2022-09-28T01:53:11.297Z,99345.56
2022-09-28T01:55:41.986Z,99344.72
2022-09-28T01:58:18.858Z,99354.34
2022-09-28T02:00:49.199Z,99350.00
2022-09-28T02:03:19.065Z,99342.03
2022-09-28T02:05:52.487Z,99347.38
2022-09-28T02:08:26.804Z,99337.69
2022-09-28T02:10:57.846Z,99349.94
2022-09-28T02:13:27.884Z,99332.47
2022-09-28T02:16:03.384Z,99334.25
2022-09-28T02:18:29.758Z,99326.38
2022-09-28T02:20:59.771Z,99322.84
2022-09-28T02:23:26.750Z,99329.81
2022-09-28T02:25:55.799Z,99328.97
2022-09-28T02:28:22.066Z,99331.59
2022-09-28T02:30:48.333Z,99332.47
2022-09-28T02:33:20.606Z,99339.50
2022-09-28T02:35:47.045Z,99331.59
2022-09-28T02:38:14.131Z,99339.50
2022-09-28T02:40:43.382Z,99340.34
2022-09-28T02:43:26.789Z,99337.66
2022-09-28T02:46:02.294Z,99337.78
2022-09-28T02:48:43.244Z,99336.06
2022-09-28T02:51:28.787Z,99336.91
2022-09-28T02:53:55.066Z,99334.28
2022-09-28T02:56:38.803Z,99330.81
2022-09-28T02:59:12.819Z,99336.97
2022-09-28T03:01:51.251Z,99338.69
2022-09-28T03:04:35.835Z,99341.34
2022-09-28T03:07:20.816Z,99336.91
2022-09-28T03:09:55.986Z,99335.19
2022-09-28T03:12:23.517Z,99330.72
2022-09-28T03:15:05.753Z,99327.25
2022-09-28T03:17:32.008Z,99338.66
2022-09-28T03:19:58.249Z,99333.44
2022-09-28T03:22:24.495Z,99335.19
2022-09-28T03:24:50.779Z,99329.94
2022-09-28T03:27:17.017Z,99332.56
2022-09-28T03:29:43.275Z,99329.06
2022-09-28T03:32:09.499Z,99339.66
2022-09-28T03:34:35.738Z,99327.34
2022-09-28T03:37:02.031Z,99330.88
2022-09-28T03:39:28.307Z,99329.97
2022-09-28T03:41:54.543Z,99332.63
2022-09-28T03:44:20.789Z,99335.31
2022-09-28T03:46:47.023Z,99330.00
2022-09-28T03:49:13.419Z,99336.13
2022-09-28T03:51:39.749Z,99334.31
2022-09-28T03:54:06.049Z,99329.06
2022-09-28T03:56:32.363Z,99329.06
2022-09-28T03:58:58.628Z,99329.06
2022-09-28T04:01:24.976Z,99325.56
2022-09-28T04:03:57.479Z,99327.28
2022-09-28T04:06:24.491Z,99323.78
2022-09-28T04:08:51.103Z,99332.59
2022-09-28T04:11:17.652Z,99328.22
2022-09-28T04:13:44.004Z,99322.19
2022-09-28T04:16:10.732Z,99323.94
2022-09-28T04:18:37.060Z,99324.84
2022-09-28T04:21:06.597Z,99318.69
2022-09-28T04:23:34.534Z,99313.44
2022-09-28T04:26:00.832Z,99314.34
2022-09-28T04:28:45.721Z,99312.63
2022-09-28T04:31:13.381Z,99312.66
2022-09-28T04:33:39.649Z,99314.50
2022-09-28T04:36:06.161Z,99312.78
2022-09-28T04:38:51.783Z,99316.34
2022-09-28T04:41:19.344Z,99319.00
2022-09-28T04:43:48.451Z,99310.28
2022-09-28T04:46:14.840Z,99313.84
2022-09-28T04:48:41.321Z,99313.06
2022-09-28T04:51:07.726Z,99315.66
2022-09-28T04:53:35.034Z,99311.28
2022-09-28T04:56:19.581Z,99312.13
2022-09-28T04:58:50.329Z,99312.94
2022-09-28T05:01:19.816Z,99312.09
2022-09-28T05:03:46.214Z,99308.53
2022-09-28T05:06:15.950Z,99305.06
2022-09-28T05:08:42.673Z,99307.69
2022-09-28T05:11:11.458Z,99315.66
2022-09-28T05:13:45.361Z,99312.13
2022-09-28T05:16:12.773Z,99315.59
2022-09-28T05:18:39.401Z,99315.56
2022-09-28T05:21:12.941Z,99317.25
2022-09-28T05:23:39.752Z,99309.34
2022-09-28T05:26:06.312Z,99316.31
2022-09-28T05:28:33.248Z,99318.06
2022-09-28T05:31:03.552Z,99310.97
2022-09-28T05:33:31.000Z,99306.66
2022-09-28T05:36:01.024Z,99309.34
2022-09-28T05:38:28.353Z,99309.34
2022-09-28T05:40:54.705Z,99309.38
2022-09-28T05:43:21.134Z,99308.44
2022-09-28T05:45:51.615Z,99303.19
2022-09-28T05:48:21.477Z,99302.41
2022-09-28T05:50:52.206Z,99312.00
2022-09-28T05:53:18.446Z,99301.38
2022-09-28T05:55:44.722Z,99315.38
2022-09-28T05:58:11.236Z,99309.22
2022-09-28T06:00:37.520Z,99312.78
2022-09-28T06:03:08.680Z,99309.31
2022-09-28T06:05:36.229Z,99319.84
2022-09-28T06:08:04.314Z,99308.41
2022-09-28T06:10:31.162Z,99318.91
2022-09-28T06:12:57.858Z,99318.00
2022-09-28T06:15:25.457Z,99319.72
2022-09-28T06:18:09.504Z,99324.03
2022-09-28T06:20:37.171Z,99324.06
2022-09-28T06:23:03.836Z,99318.78
2022-09-28T06:25:30.251Z,99323.13
2022-09-28T06:28:02.735Z,99321.41
2022-09-28T06:30:30.240Z,99319.63
2022-09-28T06:32:57.941Z,99322.25
2022-09-28T06:35:25.437Z,99331.94
2022-09-28T06:37:51.978Z,99327.53
2022-09-28T06:40:19.073Z,99326.66
2022-09-28T06:42:45.397Z,99322.19
2022-09-28T06:45:11.694Z,99323.91
2022-09-28T06:47:37.945Z,99332.63
2022-09-28T06:50:12.251Z,99334.41
2022-09-28T06:52:38.560Z,99335.25
2022-09-28T06:55:05.044Z,99341.34
2022-09-28T06:57:31.291Z,99345.69
2022-09-28T06:59:57.542Z,99351.81
2022-09-28T07:02:23.847Z,99348.34
2022-09-28T07:04:50.163Z,99359.75
2022-09-28T07:07:16.522Z,99359.75
2022-09-28T07:09:48.143Z,99360.59
2022-09-28T07:12:16.644Z,99366.75
2022-09-28T07:14:47.808Z,99363.25
2022-09-28T07:17:14.975Z,99365.84
2022-09-28T07:19:41.443Z,99371.09
2022-09-28T07:22:07.896Z,99373.72
2022-09-28T07:24:34.266Z,99379.84
2022-09-28T07:27:01.869Z,99385.13
2022-09-28T07:29:28.237Z,99390.38
2022-09-28T07:31:54.550Z,99387.69
2022-09-28T07:34:23.059Z,99393.88
2022-09-28T07:36:49.314Z,99385.94
2022-09-28T07:39:15.568Z,99390.38
2022-09-28T07:41:42.983Z,99382.50
2022-09-28T07:44:09.238Z,99390.38
2022-09-28T07:46:35.990Z,99387.78
2022-09-28T07:49:08.301Z,99393.09
2022-09-28T07:51:37.789Z,99399.28
2022-09-28T07:54:04.061Z,99397.44
2022-09-28T07:56:30.940Z,99398.28
2022-09-28T07:58:57.178Z,99399.06
2022-09-28T08:01:23.473Z,99408.59
2022-09-28T08:03:49.752Z,99402.41
2022-09-28T08:06:16.952Z,99403.16
2022-09-28T08:08:44.584Z,99408.34
2022-09-28T08:11:12.503Z,99400.38
2022-09-28T08:13:38.832Z,99401.09
2022-09-28T08:16:05.800Z,99410.69
2022-09-28T08:18:32.155Z,99402.88
2022-09-28T08:21:17.278Z,99408.94
2022-09-28T08:23:43.565Z,99414.22
2022-09-28T08:26:14.584Z,99413.19
2022-09-28T08:28:43.104Z,99420.28
2022-09-28T08:31:09.798Z,99422.09
2022-09-28T08:33:36.347Z,99416.72
2022-09-28T08:36:04.247Z,99417.63
2022-09-28T08:38:31.319Z,99419.44
2022-09-28T08:41:09.722Z,99415.75
2022-09-28T08:43:51.267Z,99414.81
2022-09-28T08:46:22.681Z,99421.78
2022-09-28T08:49:23.803Z,99426.84
2022-09-28T08:52:07.711Z,99418.72
2022-09-28T08:54:40.494Z,99429.28
2022-09-28T08:57:14.633Z,99426.44
2022-09-28T08:59:52.063Z,99433.28
2022-09-28T09:02:22.489Z,99424.25
2022-09-28T09:04:49.280Z,99431.91
2022-09-28T09:07:18.303Z,99424.06
2022-09-28T09:09:50.782Z,99426.91
2022-09-28T09:12:27.943Z,99433.88
2022-09-28T09:15:11.695Z,99441.78
2022-09-28T09:17:52.813Z,99433.81
2022-09-28T09:20:23.390Z,99431.94
2022-09-28T09:22:58.579Z,99430.25
2022-09-28T09:25:47.640Z,99435.44
2022-09-28T09:28:31.596Z,99435.47
2022-09-28T09:31:18.606Z,99432.06
2022-09-28T09:34:12.684Z,99423.47
2022-09-28T09:36:45.870Z,99440.38
2022-09-28T09:39:12.106Z,99434.34
2022-09-28T09:41:55.962Z,99443.09
2022-09-28T09:44:39.079Z,99441.13
2022-09-28T09:47:13.421Z,99448.09
2022-09-28T09:49:43.260Z,99445.31
2022-09-28T09:52:18.053Z,99442.41
2022-09-28T09:55:05.532Z,99438.59
2022-09-28T09:57:39.541Z,99440.19
2022-09-28T10:00:12.085Z,99444.34
2022-09-28T10:02:39.178Z,99438.88
2022-09-28T10:05:11.519Z,99440.44
2022-09-28T10:07:46.967Z,99442.94
2022-09-28T10:10:22.824Z,99441.97
2022-09-28T10:12:50.867Z,99440.88
2022-09-28T10:15:20.501Z,99446.25
2022-09-28T10:17:46.757Z,99441.00
2022-09-28T10:20:14.682Z,99451.69
2022-09-28T10:22:40.969Z,99442.03
2022-09-28T10:25:08.913Z,99447.97
2022-09-28T10:27:36.392Z,99455.28
2022-09-28T10:30:12.968Z,99451.00
2022-09-28T10:32:40.880Z,99456.28
2022-09-28T10:35:19.106Z,99457.34
2022-09-28T10:37:55.015Z,99454.03
2022-09-28T10:40:30.242Z,99456.94
2022-09-28T10:43:07.892Z,99459.56
2022-09-28T10:45:36.034Z,99456.19
2022-09-28T10:48:07.066Z,99460.72
2022-09-28T10:50:34.379Z,99458.00
2022-09-28T10:53:20.405Z,99458.22
2022-09-28T10:56:00.685Z,99462.75
2022-09-28T10:58:29.052Z,99466.34
2022-09-28T11:00:59.945Z,99464.63
2022-09-28T11:03:27.729Z,99468.97
2022-09-28T11:06:12.189Z,99469.78
2022-09-28T11:08:40.173Z,99475.78
2022-09-28T11:11:16.803Z,99469.59
2022-09-28T11:13:45.471Z,99468.63
2022-09-28T11:16:22.592Z,99470.22
2022-09-28T11:18:49.126Z,99472.84
2022-09-28T11:21:17.266Z,99471.75
2022-09-28T11:23:55.639Z,99477.03
2022-09-28T11:26:22.271Z,99482.91
2022-09-28T11:28:52.919Z,99476.63
2022-09-28T11:31:28.360Z,99480.88
2022-09-28T11:34:02.624Z,99486.22
2022-09-28T11:36:36.814Z,99486.22
2022-09-28T11:39:09.243Z,99489.72
2022-09-28T11:41:53.216Z,99493.22
2022-09-28T11:44:22.585Z,99491.41
2022-09-28T11:46:48.958Z,99491.47
2022-09-28T11:49:22.830Z,99495.78
2022-09-28T11:51:49.823Z,99498.97
2022-09-28T11:54:39.175Z,99491.88
2022-09-28T11:57:06.268Z,99498.66
2022-09-28T12:00:01.758Z,99495.81
2022-09-28T12:02:28.097Z,99498.56
2022-09-28T12:05:00.424Z,99495.94
2022-09-28T12:07:35.398Z,99497.63
2022-09-28T12:10:20.251Z,99495.84
2022-09-28T12:12:50.299Z,99500.38
2022-09-28T12:15:21.694Z,99499.28
2022-09-28T12:17:54.113Z,99507.34
2022-09-28T12:20:24.352Z,99502.97
2022-09-28T12:22:53.440Z,99501.13
2022-09-28T12:25:22.444Z,99493.94
2022-09-28T12:27:54.901Z,99494.78
2022-09-28T12:30:27.486Z,99500.47
2022-09-28T12:33:09.154Z,99502.13
2022-09-28T12:35:47.298Z,99495.69
2022-09-28T12:38:16.574Z,99499.72
2022-09-28T12:40:52.689Z,99499.50
2022-09-28T12:43:29.988Z,99499.69
2022-09-28T12:46:11.945Z,99490.50
2022-09-28T12:49:43.691Z,99489.63
2022-09-28T12:52:04.616Z,99489.00
2022-09-28T12:54:34.422Z,99484.75
2022-09-28T12:57:19.745Z,99478.19
2022-09-28T13:00:06.455Z,99477.00
2022-09-28T13:02:51.786Z,99477.72
2022-09-28T13:05:32.189Z,99476.94
2022-09-28T13:08:17.303Z,99482.56
2022-09-28T13:10:58.913Z,99480.75
2022-09-28T13:13:25.666Z,99483.31
2022-09-28T13:15:57.382Z,99474.25
2022-09-28T13:18:36.866Z,99471.69
2022-09-28T13:21:05.935Z,99472.94
2022-09-28T13:23:35.453Z,99480.53
2022-09-28T13:26:07.008Z,99479.47
2022-09-28T13:28:33.893Z,99481.88
2022-09-28T13:31:02.148Z,99480.81
2022-09-28T13:33:33.709Z,99484.47
2022-09-28T13:35:59.999Z,99480.13
2022-09-28T13:38:30.326Z,99480.91
2022-09-28T13:41:06.158Z,99484.13
2022-09-28T13:43:53.478Z,99493.41
2022-09-28T13:46:19.861Z,99495.31
2022-09-28T13:48:51.226Z,99494.22
2022-09-28T13:51:28.547Z,99492.22
2022-09-28T13:54:02.499Z,99488.44
2022-09-28T13:56:35.987Z,99495.91
2022-09-28T13:59:17.003Z,99499.41
2022-09-28T14:02:00.645Z,99497.91
2022-09-28T14:04:48.241Z,99503.94
2022-09-28T14:07:25.935Z,99507.84
2022-09-28T14:10:14.539Z,99509.91
2022-09-28T14:12:40.769Z,99506.50
2022-09-28T14:15:27.033Z,99513.75
2022-09-28T14:17:59.310Z,99515.63
2022-09-28T14:20:27.105Z,99513.03
2022-09-28T14:23:14.864Z,99502.91
2022-09-28T14:25:44.402Z,99500.03
2022-09-28T14:28:28.893Z,99496.38
2022-09-28T14:30:58.764Z,99490.81
2022-09-28T14:33:27.199Z,99493.50
2022-09-28T14:35:58.233Z,99488.81
2022-09-28T14:38:47.072Z,99494.75
2022-09-28T14:41:27.036Z,99496.00
2022-09-28T14:44:01.102Z,99499.41
2022-09-28T14:46:29.372Z,99501.69
2022-09-28T14:49:05.771Z,99508.50
2022-09-28T14:51:33.863Z,99510.31
2022-09-28T14:54:05.213Z,99503.47
2022-09-28T14:56:33.336Z,99504.13
2022-09-28T14:59:00.279Z,99503.22
2022-09-28T15:01:26.569Z,99498.22
2022-09-28T15:03:56.890Z,99499.19
2022-09-28T15:06:23.958Z,99501.28
2022-09-28T15:08:50.215Z,99501.19
2022-09-28T15:11:24.159Z,99501.38
2022-09-28T15:13:53.275Z,99499.94
2022-09-28T15:16:23.392Z,99504.84
2022-09-28T15:18:58.495Z,99504.03
2022-09-28T15:21:31.647Z,99501.56
2022-09-28T15:23:58.004Z,99503.53
2022-09-28T15:26:31.650Z,99507.22
2022-09-28T15:28:58.276Z,99503.88
2022-09-28T15:31:26.562Z,99513.59
2022-09-28T15:34:11.944Z,99519.81
2022-09-28T15:36:42.117Z,99513.75
2022-09-28T15:39:11.576Z,99507.72
2022-09-28T15:41:38.075Z,99519.41
2022-09-28T15:44:08.442Z,99514.13
2022-09-28T15:46:37.270Z,99510.78
2022-09-28T15:49:04.736Z,99513.56
2022-09-28T15:51:32.388Z,99516.38
2022-09-28T15:54:01.447Z,99511.28
2022-09-28T15:56:28.550Z,99513.31
2022-09-28T15:59:13.075Z,99519.69
2022-09-28T16:01:40.310Z,99523.38
2022-09-28T16:04:34.250Z,99520.09
2022-09-28T16:07:12.832Z,99527.31
2022-09-28T16:09:56.124Z,99524.78
2022-09-28T16:12:23.911Z,99533.78
2022-09-28T16:14:55.879Z,99534.75
2022-09-28T16:17:32.472Z,99536.63
2022-09-28T16:20:04.128Z,99541.13
2022-09-28T16:22:32.673Z,99541.19
2022-09-28T16:25:00.777Z,99536.06
2022-09-28T16:27:28.776Z,99539.72
2022-09-28T16:30:05.079Z,99543.47
2022-09-28T16:32:35.251Z,99542.72
2022-09-28T16:35:13.657Z,99554.28
2022-09-28T16:37:42.609Z,99546.53
2022-09-28T16:40:09.761Z,99548.47
2022-09-28T16:42:36.812Z,99549.47
2022-09-28T16:45:05.164Z,99560.19
2022-09-28T16:47:34.964Z,99559.47
2022-09-28T16:50:02.421Z,99560.47
2022-09-28T16:52:47.493Z,99558.84
2022-09-28T16:57:52.109Z,99559.97
2022-09-28T17:00:23.391Z,99561.91
2022-09-28T17:02:52.978Z,99560.25
2022-09-28T17:05:20.482Z,99559.50
2022-09-28T17:07:48.651Z,99565.72
2022-09-28T17:10:17.445Z,99574.66
2022-09-28T17:12:43.724Z,99572.97
2022-09-28T17:15:10.000Z,99573.06
2022-09-28T17:17:38.112Z,99575.75
2022-09-28T17:20:25.360Z,99579.28
2022-09-28T17:22:51.871Z,99583.75
2022-09-28T17:25:18.357Z,99583.84
2022-09-28T17:27:46.152Z,99590.94
2022-09-28T17:30:13.279Z,99595.38
2022-09-28T17:32:44.825Z,99597.19
2022-09-28T17:35:24.148Z,99600.78
2022-09-28T17:37:51.168Z,99599.94
2022-09-28T17:40:21.830Z,99595.66
2022-09-28T17:42:48.384Z,99594.78
2022-09-28T17:45:16.042Z,99595.69
2022-09-28T17:47:43.273Z,99596.56
2022-09-28T17:50:23.937Z,99599.22
2022-09-28T17:52:52.456Z,99605.38
2022-09-28T17:55:23.168Z,99601.00
2022-09-28T17:57:49.897Z,99601.91
2022-09-28T18:00:17.506Z,99606.31
2022-09-28T18:02:44.473Z,99605.47
2022-09-28T18:05:13.086Z,99609.03
2022-09-28T18:07:40.701Z,99607.31
2022-09-28T18:10:30.638Z,99611.72
2022-09-28T18:12:56.899Z,99610.91
2022-09-28T18:15:23.153Z,99613.59
2022-09-28T18:17:49.419Z,99615.38
2022-09-28T18:20:15.761Z,99614.53
2022-09-28T18:22:42.013Z,99625.94
2022-09-28T18:25:08.749Z,99620.69
2022-09-28T18:27:35.060Z,99626.00
2022-09-28T18:30:01.742Z,99619.88
2022-09-28T18:32:28.138Z,99632.16
2022-09-28T18:34:54.433Z,99639.19
2022-09-28T18:37:20.739Z,99636.56
2022-09-28T18:39:47.019Z,99634.00
2022-09-28T18:42:13.381Z,99634.84
2022-09-28T18:44:39.624Z,99636.63
2022-09-28T18:47:05.868Z,99640.13
2022-09-28T18:49:33.515Z,99646.28
2022-09-28T18:51:59.810Z,99651.50
2022-09-28T18:54:27.789Z,99651.50
2022-09-28T18:56:56.207Z,99645.38
2022-09-28T18:59:23.319Z,99660.28
2022-09-28T19:01:49.958Z,99658.53
2022-09-28T19:04:16.359Z,99662.06
2022-09-28T19:06:44.637Z,99671.69
2022-09-28T19:09:11.135Z,99663.81
2022-09-28T19:11:37.556Z,99662.97
2022-09-28T19:14:03.835Z,99669.06
2022-09-28T19:16:33.577Z,99667.34
2022-09-28T19:19:01.295Z,99667.38
2022-09-28T19:21:27.573Z,99670.84
2022-09-28T19:23:55.285Z,99666.47
2022-09-28T19:26:23.003Z,99670.84
2022-09-28T19:28:49.501Z,99674.34
2022-09-28T19:31:16.216Z,99673.47
2022-09-28T19:33:42.567Z,99670.84
2022-09-28T19:36:10.442Z,99676.97
2022-09-28T19:38:37.626Z,99675.22
2022-09-28T19:41:35.880Z,99669.97
2022-09-28T19:44:06.721Z,99683.97
2022-09-28T19:46:34.939Z,99682.22
2022-09-28T19:49:05.070Z,99678.72
2022-09-28T19:51:31.779Z,99686.59
2022-09-28T19:53:58.440Z,99684.84
2022-09-28T19:56:24.716Z,99687.47
2022-09-28T19:58:50.960Z,99690.09
2022-09-28T20:01:17.451Z,99689.22
2022-09-28T20:03:43.901Z,99683.97
2022-09-28T20:06:12.765Z,99691.84
2022-09-28T20:08:44.208Z,99685.72
2022-09-28T20:11:11.175Z,99685.72
2022-09-28T20:13:37.820Z,99683.97
2022-09-28T20:16:04.257Z,99690.97
2022-09-28T20:18:34.372Z,99693.59
2022-09-28T20:21:04.836Z,99693.59
2022-09-28T20:23:31.425Z,99692.72
2022-09-28T20:25:58.286Z,99703.22
2022-09-28T20:28:24.816Z,99695.34
2022-09-28T20:30:51.135Z,99696.22
2022-09-28T20:33:27.490Z,99697.09
2022-09-28T20:35:55.909Z,99696.22
2022-09-28T20:38:23.600Z,99702.34
2022-09-28T20:40:50.347Z,99698.84
2022-09-28T20:43:16.625Z,99707.56
2022-09-28T20:45:43.001Z,99710.19
2022-09-28T20:48:09.301Z,99704.97
2022-09-28T20:50:35.539Z,99703.19
2022-09-28T20:53:01.832Z,99709.31
2022-09-28T20:55:28.112Z,99704.06
2022-09-28T20:57:54.356Z,99698.81
2022-09-28T21:00:23.468Z,99705.81
2022-09-28T21:02:51.264Z,99706.69
2022-09-28T21:05:17.556Z,99710.19
2022-09-28T21:07:43.799Z,99710.22
2022-09-28T21:10:10.215Z,99711.94
2022-09-28T21:12:37.166Z,99707.59
2022-09-28T21:15:08.936Z,99708.47
2022-09-28T21:17:35.204Z,99711.09
2022-09-28T21:20:01.676Z,99719.81
2022-09-28T21:22:28.719Z,99714.56
2022-09-28T21:24:55.012Z,99717.22
2022-09-28T21:27:21.332Z,99717.22
2022-09-28T21:29:47.612Z,99712.84
2022-09-28T21:32:13.943Z,99719.84
2022-09-28T21:34:40.203Z,99711.97
2022-09-28T21:37:06.458Z,99711.09
2022-09-28T21:39:32.700Z,99723.34
2022-09-28T21:41:58.977Z,99723.34
2022-09-28T21:44:25.244Z,99719.84
2022-09-28T21:46:51.606Z,99719.84
2022-09-28T21:49:18.228Z,99719.88
2022-09-28T21:51:46.365Z,99725.09
2022-09-28T21:54:13.694Z,99720.75
2022-09-28T21:56:40.005Z,99729.50
2022-09-28T21:59:06.505Z,99718.97
2022-09-28T22:01:32.820Z,99721.63
2022-09-28T22:03:59.364Z,99723.34
2022-09-28T22:06:29.641Z,99727.72
2022-09-28T22:08:56.376Z,99725.09
2022-09-28T22:11:23.815Z,99731.22
2022-09-28T22:13:54.256Z,99732.09
2022-09-28T22:16:21.898Z,99727.72
2022-09-28T22:18:48.665Z,99732.13
2022-09-28T22:21:19.805Z,99729.50
2022-09-28T22:23:46.404Z,99726.84
2022-09-28T22:26:17.958Z,99731.25
2022-09-28T22:28:46.764Z,99736.50
2022-09-28T22:31:13.494Z,99731.25
2022-09-28T22:33:39.766Z,99733.84
2022-09-28T22:36:07.838Z,99739.09
2022-09-28T22:38:35.126Z,99734.72
2022-09-28T22:41:03.603Z,99735.59
2022-09-28T22:43:30.172Z,99735.59
2022-09-28T22:46:03.468Z,99739.09
2022-09-28T22:48:29.903Z,99739.94
2022-09-28T22:50:56.260Z,99735.59
2022-09-28T22:53:22.555Z,99737.34
2022-09-28T22:55:48.808Z,99737.34
2022-09-28T22:58:15.152Z,99742.59
2022-09-28T23:00:41.701Z,99748.72
2022-09-28T23:03:07.994Z,99746.09
2022-09-28T23:05:34.354Z,99748.69
2022-09-28T23:08:00.743Z,99746.09
2022-09-28T23:10:27.120Z,99759.22
2022-09-28T23:12:53.835Z,99748.69
2022-09-28T23:15:21.509Z,99753.97
2022-09-28T23:17:53.670Z,99751.34
2022-09-28T23:20:23.696Z,99755.69
2022-09-28T23:22:50.314Z,99750.47
2022-09-28T23:25:17.655Z,99749.56
2022-09-28T23:27:47.647Z,99741.72
2022-09-28T23:30:15.070Z,99749.59
2022-09-28T23:32:41.609Z,99745.22
2022-09-28T23:35:08.530Z,99746.97
2022-09-28T23:37:35.026Z,99746.09
2022-09-28T23:40:02.836Z,99742.56
2022-09-28T23:42:29.225Z,99746.09
2022-09-28T23:44:55.477Z,99746.94
2022-09-28T23:47:21.798Z,99745.22
2022-09-28T23:49:48.056Z,99741.72
2022-09-28T23:52:14.335Z,99744.34
2022-09-28T23:54:40.601Z,99749.59
2022-09-28T23:57:06.843Z,99747.84
2022-09-28T23:59:33.084Z,99744.34
